createdAt,value
2022-11-30T00:03:53.073Z,1.30
2022-11-30T00:09:01.107Z,1.40
2022-11-30T00:14:08.100Z,1.30
2022-11-30T00:19:15.605Z,1.40
2022-11-30T00:24:22.760Z,1.30
2022-11-30T00:29:29.926Z,1.40
2022-11-30T00:34:37.044Z,1.30
2022-11-30T00:39:44.120Z,1.30
2022-11-30T00:44:50.963Z,1.40
2022-11-30T00:49:57.862Z,1.40
2022-11-30T00:55:05.615Z,1.30
2022-11-30T01:00:13.299Z,1.40
2022-11-30T01:05:20.698Z,1.40
2022-11-30T01:10:28.171Z,1.50
2022-11-30T01:15:40.907Z,1.60
2022-11-30T01:20:47.811Z,1.40
2022-11-30T01:25:58.582Z,1.40
2022-11-30T01:31:09.648Z,1.30
2022-11-30T01:36:21.017Z,1.50
2022-11-30T01:41:32.369Z,1.50
2022-11-30T01:46:59.153Z,1.30
2022-11-30T01:52:25.227Z,1.20
2022-11-30T01:57:36.568Z,1.30
2022-11-30T02:03:05.838Z,1.30
2022-11-30T02:08:14.510Z,1.40
2022-11-30T02:13:55.713Z,1.20
2022-11-30T02:19:44.610Z,1.20
2022-11-30T02:25:13.775Z,1.40
2022-11-30T02:30:23.370Z,1.50
2022-11-30T02:35:33.883Z,1.40
2022-11-30T02:40:40.706Z,1.40
2022-11-30T02:46:21.873Z,1.40
2022-11-30T02:51:30.753Z,1.50
2022-11-30T02:56:37.438Z,1.50
2022-11-30T03:01:45.898Z,1.40
2022-11-30T03:06:52.613Z,1.40
2022-11-30T03:11:59.301Z,1.50
2022-11-30T03:17:07.314Z,1.40
2022-11-30T03:22:14.019Z,1.40
2022-11-30T03:27:20.739Z,1.40
2022-11-30T03:32:27.410Z,1.10
2022-11-30T03:37:34.112Z,1.20
2022-11-30T03:42:40.817Z,1.30
2022-11-30T03:47:47.566Z,1.30
2022-11-30T03:52:54.246Z,1.20
2022-11-30T03:58:00.987Z,1.30
2022-11-30T04:03:08.037Z,1.30
2022-11-30T04:08:14.733Z,1.30
2022-11-30T04:13:22.462Z,1.30
2022-11-30T04:18:31.531Z,1.20
2022-11-30T04:23:41.405Z,1.40
2022-11-30T04:28:48.115Z,1.30
2022-11-30T04:33:57.576Z,1.20
2022-11-30T04:39:04.250Z,1.30
2022-11-30T04:44:11.085Z,1.30
2022-11-30T04:49:17.804Z,1.50
2022-11-30T04:54:24.568Z,1.50
2022-11-30T04:59:31.256Z,1.40
2022-11-30T05:04:38.197Z,1.40
2022-11-30T05:09:44.968Z,1.40
2022-11-30T05:14:51.720Z,1.30
2022-11-30T05:19:58.446Z,1.40
2022-11-30T05:25:06.257Z,1.40
2022-11-30T05:30:13.890Z,1.40
2022-11-30T05:35:20.592Z,1.50
2022-11-30T05:40:29.012Z,1.50
2022-11-30T05:45:35.795Z,1.50
2022-11-30T05:50:43.011Z,1.50
2022-11-30T05:55:49.722Z,1.50
2022-11-30T06:00:56.531Z,1.50
2022-11-30T06:06:04.701Z,1.50
2022-11-30T06:11:11.605Z,1.50
2022-11-30T06:16:18.742Z,1.50
2022-11-30T06:21:25.488Z,1.30
2022-11-30T06:26:32.700Z,1.40
2022-11-30T06:31:39.726Z,1.50
2022-11-30T06:36:46.878Z,1.50
2022-11-30T06:41:54.700Z,1.50
2022-11-30T06:47:01.706Z,1.50
2022-11-30T06:52:09.194Z,1.50
2022-11-30T06:57:16.431Z,1.60
2022-11-30T07:02:24.476Z,1.60
2022-11-30T07:07:31.818Z,1.60
2022-11-30T07:12:38.520Z,1.70
2022-11-30T07:17:45.228Z,1.70
2022-11-30T07:22:51.953Z,1.70
2022-11-30T07:27:58.646Z,1.60
2022-11-30T07:33:05.418Z,1.50
2022-11-30T07:38:12.173Z,1.50
2022-11-30T07:43:18.930Z,1.60
2022-11-30T07:48:25.623Z,1.70
2022-11-30T07:53:32.361Z,1.60
2022-11-30T07:58:39.750Z,1.50
2022-11-30T08:03:46.787Z,1.50
2022-11-30T08:08:55.386Z,1.40
2022-11-30T08:14:03.351Z,1.40
2022-11-30T08:19:10.113Z,1.40
2022-11-30T08:24:17.040Z,1.50
2022-11-30T08:29:23.742Z,1.50
2022-11-30T08:34:30.490Z,1.70
2022-11-30T08:39:37.241Z,1.60
2022-11-30T08:44:43.962Z,1.50
2022-11-30T08:49:50.643Z,1.70
2022-11-30T08:54:57.365Z,1.70
2022-11-30T09:00:04.998Z,1.70
2022-11-30T09:05:11.965Z,1.90
2022-11-30T09:10:19.071Z,1.90
2022-11-30T09:15:25.853Z,1.90
2022-11-30T09:20:32.686Z,1.80
2022-11-30T09:25:39.380Z,2.00
2022-11-30T09:30:46.148Z,1.90
2022-11-30T09:36:00.769Z,1.90
2022-11-30T09:41:17.830Z,1.90
2022-11-30T09:46:29.152Z,1.80
2022-11-30T09:51:52.372Z,1.90
2022-11-30T09:56:59.190Z,1.90
2022-11-30T10:02:15.689Z,1.90
2022-11-30T10:07:41.933Z,2.00
2022-11-30T10:13:15.540Z,2.00
2022-11-30T10:18:29.455Z,1.90
2022-11-30T10:23:55.596Z,2.10
2022-11-30T10:29:09.441Z,2.00
2022-11-30T10:34:17.991Z,2.10
2022-11-30T10:39:40.193Z,2.10
2022-11-30T10:44:51.756Z,2.30
2022-11-30T10:49:58.439Z,2.20
2022-11-30T10:55:06.730Z,2.20
2022-11-30T11:00:18.581Z,2.10
2022-11-30T11:05:31.510Z,2.20
2022-11-30T11:10:51.940Z,2.20
2022-11-30T11:16:01.809Z,2.20
2022-11-30T11:21:13.033Z,2.20
2022-11-30T11:26:25.957Z,2.20
2022-11-30T11:31:49.859Z,2.20
2022-11-30T11:37:15.922Z,2.10
2022-11-30T11:42:24.314Z,2.00
2022-11-30T11:47:41.029Z,2.10
2022-11-30T11:52:47.789Z,2.20
2022-11-30T11:58:01.060Z,2.20
2022-11-30T12:03:45.344Z,2.10
2022-11-30T12:09:05.210Z,2.10
2022-11-30T12:14:15.651Z,2.20
2022-11-30T12:19:35.928Z,2.20
2022-11-30T12:25:07.943Z,2.20
2022-11-30T12:30:44.614Z,2.10
2022-11-30T12:36:14.633Z,2.10
2022-11-30T12:41:34.886Z,2.00
2022-11-30T12:46:48.847Z,2.10
2022-11-30T12:52:06.042Z,2.20
2022-11-30T12:57:31.756Z,2.20
2022-11-30T13:03:14.169Z,2.10
2022-11-30T13:08:37.314Z,2.20
2022-11-30T13:13:48.505Z,2.30
2022-11-30T13:18:59.708Z,2.20
2022-11-30T13:24:32.334Z,2.30
2022-11-30T13:29:58.552Z,2.30
2022-11-30T13:35:34.892Z,2.30
2022-11-30T13:40:41.663Z,2.20
2022-11-30T13:45:48.989Z,2.20
2022-11-30T13:50:56.737Z,2.20
2022-11-30T13:56:10.893Z,2.10
2022-11-30T14:06:56.972Z,2.10
2022-11-30T14:12:37.828Z,2.10
2022-11-30T14:17:44.973Z,2.00
2022-11-30T14:22:54.748Z,1.90
2022-11-30T14:28:04.710Z,2.00
2022-11-30T14:33:19.989Z,2.10
2022-11-30T14:38:31.778Z,2.10
2022-11-30T14:43:38.926Z,2.00
2022-11-30T14:48:45.988Z,2.00
2022-11-30T14:54:12.817Z,2.00
2022-11-30T14:59:51.080Z,2.00
2022-11-30T15:04:59.212Z,2.00
2022-11-30T15:10:13.078Z,2.00
2022-11-30T15:15:21.335Z,2.00
2022-11-30T15:20:32.597Z,1.90
2022-11-30T15:25:52.206Z,1.90
2022-11-30T15:31:02.741Z,2.00
2022-11-30T15:36:27.962Z,1.90
2022-11-30T15:41:22.895Z,1.90
2022-11-30T15:46:46.364Z,1.90
2022-11-30T15:51:57.502Z,2.00
2022-11-30T15:57:07.487Z,2.00
2022-11-30T16:02:34.875Z,2.10
2022-11-30T16:08:03.991Z,2.10
2022-11-30T16:13:16.418Z,2.20
2022-11-30T16:18:27.035Z,2.10
2022-11-30T16:23:38.197Z,2.10
2022-11-30T16:28:44.951Z,2.10
2022-11-30T16:33:52.667Z,2.10
2022-11-30T16:39:00.222Z,2.20
2022-11-30T16:44:12.271Z,2.10
2022-11-30T16:49:20.655Z,2.10
2022-11-30T16:54:27.415Z,2.00
2022-11-30T16:59:34.489Z,2.10
2022-11-30T17:04:42.499Z,2.00
2022-11-30T17:09:49.119Z,2.00
2022-11-30T17:14:56.268Z,2.00
2022-11-30T17:20:04.318Z,2.00
2022-11-30T17:25:15.894Z,1.90
2022-11-30T17:30:24.819Z,1.90
2022-11-30T17:35:31.649Z,1.80
2022-11-30T17:40:44.243Z,1.90
2022-11-30T17:45:51.211Z,1.80
2022-11-30T17:50:58.490Z,1.90
2022-11-30T17:56:08.505Z,1.70
2022-11-30T18:01:22.444Z,1.80
2022-11-30T18:06:30.148Z,1.80
2022-11-30T18:11:37.390Z,1.80
2022-11-30T18:16:44.459Z,1.60
2022-11-30T18:21:51.763Z,1.60
2022-11-30T18:26:59.248Z,1.60
2022-11-30T18:32:06.637Z,1.50
2022-11-30T18:37:14.111Z,1.60
2022-11-30T18:42:21.555Z,1.60
2022-11-30T18:47:28.591Z,1.60
2022-11-30T18:52:36.042Z,1.70
2022-11-30T18:57:43.380Z,1.60
2022-11-30T19:02:51.954Z,1.70
2022-11-30T19:08:00.097Z,1.70
2022-11-30T19:13:08.273Z,1.60
2022-11-30T19:18:17.264Z,1.60
2022-11-30T19:23:24.550Z,1.70
2022-11-30T19:28:32.775Z,1.60
2022-11-30T19:33:42.097Z,1.70
2022-11-30T19:38:51.935Z,1.70
2022-11-30T19:44:04.838Z,1.70
2022-11-30T19:49:13.081Z,1.70
2022-11-30T19:54:19.852Z,1.70
2022-11-30T19:59:26.847Z,1.80
2022-11-30T20:04:33.677Z,1.70
2022-11-30T20:09:40.657Z,1.70
2022-11-30T20:14:49.272Z,1.70
2022-11-30T20:19:56.664Z,1.70
2022-11-30T20:25:04.138Z,1.70
2022-11-30T20:30:13.377Z,1.70
2022-11-30T20:35:20.835Z,1.70
2022-11-30T20:40:27.899Z,1.70
2022-11-30T20:45:35.295Z,1.70
2022-11-30T20:50:51.345Z,1.70
2022-11-30T20:55:52.249Z,1.80
2022-11-30T21:01:01.542Z,1.70
2022-11-30T21:06:08.815Z,1.70
2022-11-30T21:11:18.754Z,1.70
2022-11-30T21:16:30.160Z,1.70
2022-11-30T21:21:38.580Z,1.70
2022-11-30T21:26:45.837Z,1.70
2022-11-30T21:31:53.097Z,1.70
2022-11-30T21:37:00.340Z,1.70
2022-11-30T21:42:07.360Z,1.70
2022-11-30T21:47:15.360Z,1.70
2022-11-30T21:52:22.305Z,1.70
2022-11-30T21:57:29.535Z,1.70
2022-11-30T22:02:37.824Z,1.70
2022-11-30T22:07:45.004Z,1.80
2022-11-30T22:12:52.010Z,1.80
2022-11-30T22:17:59.370Z,1.80
2022-11-30T22:23:07.092Z,1.80
2022-11-30T22:28:14.345Z,1.80
2022-11-30T22:33:22.256Z,1.80
2022-11-30T22:38:30.561Z,1.90
2022-11-30T22:43:38.174Z,1.80
2022-11-30T22:48:46.148Z,1.80
2022-11-30T22:53:54.894Z,1.90
2022-11-30T22:59:03.167Z,1.90
2022-11-30T23:04:20.236Z,1.90
2022-11-30T23:09:27.392Z,1.90
2022-11-30T23:14:34.892Z,1.80
2022-11-30T23:19:42.412Z,1.90
2022-11-30T23:24:50.398Z,1.90
2022-11-30T23:29:57.228Z,1.90
2022-11-30T23:35:05.383Z,1.80
2022-11-30T23:40:13.122Z,1.90
2022-11-30T23:45:20.284Z,1.80
2022-11-30T23:50:27.322Z,1.80
2022-11-30T23:55:35.937Z,1.80
